Time;durP1;ratioP1;P1;durP2;ratioP2;P2;SDS_P1;SDS_P2;PMS_P1;PMS_P2;Temp;Humidity;BMP_temperature;BMP_pressure;BME280_temperature;BME280_humidity;BME280_pressure;Samples;Min_cycle;Max_cycle;Signal;HPM_P1;HPM_P2
2023/02/14 00:00:30;;;;;;;28.27;19.58;;;;;;;14.35;72.87;102545.75;4973759;28;20034;-65
2023/02/14 00:02:56;;;;;;;25.38;18.23;;;;;;;14.31;73.08;102550.22;4973514;28;20116;-66
2023/02/14 00:05:23;;;;;;;28.67;19.15;;;;;;;14.21;74.82;102539.34;4962834;28;20133;-66
2023/02/14 00:07:50;;;;;;;26.05;19.92;;;;;;;14.19;75.46;102544.31;4973966;28;20033;-66
2023/02/14 00:10:17;;;;;;;26.90;19.13;;;;;;;14.12;75.61;102533.66;4973230;28;20025;-65
2023/02/14 00:12:43;;;;;;;32.70;20.27;;;;;;;14.08;76.07;102527.13;4973604;28;20034;-65
2023/02/14 00:15:22;;;;;;;25.73;19.48;;;;;;;13.96;77.42;102537.69;4973154;28;20027;-65
2023/02/14 00:17:54;;;;;;;30.65;20.00;;;;;;;13.78;81.54;102533.78;4964289;28;20027;-65
2023/02/14 00:20:23;;;;;;;40.92;27.45;;;;;;;13.73;83.11;102519.28;4973018;28;20027;-66
2023/02/14 00:22:51;;;;;;;37.38;26.05;;;;;;;13.74;83.90;102501.69;4973469;28;20023;-65
2023/02/14 00:25:18;;;;;;;33.92;23.13;;;;;;;13.99;81.26;102497.84;4972699;28;20039;-66
2023/02/14 00:27:44;;;;;;;37.47;21.55;;;;;;;14.11;80.00;102511.97;4970974;28;20051;-65
2023/02/14 00:30:12;;;;;;;31.23;20.50;;;;;;;14.19;79.05;102511.31;4964797;28;20062;-66
2023/02/14 00:32:39;;;;;;;34.63;21.83;;;;;;;14.19;79.68;102503.06;4973657;28;20023;-66
2023/02/14 00:35:07;;;;;;;32.20;22.23;;;;;;;13.85;84.82;102503.22;4973605;28;20031;-66
2023/02/14 00:37:33;;;;;;;33.30;20.70;;;;;;;13.74;88.33;102509.94;4973546;28;20103;-65
2023/02/14 00:39:59;;;;;;;28.85;21.17;;;;;;;14.01;84.26;102512.09;4972820;28;20035;-65
2023/02/14 00:42:26;;;;;;;31.27;21.27;;;;;;;14.05;82.73;102494.72;4965678;28;20038;-65
2023/02/14 00:44:55;;;;;;;33.85;21.83;;;;;;;14.06;82.37;102498.31;4954072;28;20027;-65
2023/02/14 00:47:21;;;;;;;29.42;21.35;;;;;;;14.10;81.12;102504.84;4954238;28;20031;-65
2023/02/14 00:49:48;;;;;;;31.05;20.67;;;;;;;14.05;80.51;102485.66;4954127;28;20110;-65
2023/02/14 00:52:14;;;;;;;31.50;19.95;;;;;;;14.02;80.56;102480.75;4971007;28;20026;-66
2023/02/14 00:54:40;;;;;;;30.67;20.98;;;;;;;13.57;88.06;102485.66;4972705;28;20034;-65
2023/02/14 00:57:06;;;;;;;34.60;21.80;;;;;;;13.49;90.60;102478.06;4967617;28;20030;-65
2023/02/14 00:59:33;;;;;;;38.63;21.70;;;;;;;13.49;92.86;102472.56;4954273;28;20505;-65
2023/02/14 01:01:59;;;;;;;38.83;24.35;;;;;;;13.51;93.78;102473.09;4970521;28;20389;-65
2023/02/14 01:04:26;;;;;;;30.02;21.50;;;;;;;13.49;95.69;102478.06;4977411;28;20034;-66
2023/02/14 01:06:52;;;;;;;32.72;20.60;;;;;;;13.50;95.08;102475.03;4976830;28;20043;-65
2023/02/14 01:09:18;;;;;;;29.88;22.10;;;;;;;13.48;95.54;102470.94;4967800;28;20031;-65
2023/02/14 01:11:45;;;;;;;37.85;24.20;;;;;;;13.50;96.86;102463.22;4974747;28;20038;-65
2023/02/14 01:14:12;;;;;;;34.25;21.58;;;;;;;13.57;96.59;102469.19;4976941;28;20039;-65
2023/02/14 01:16:38;;;;;;;35.90;24.05;;;;;;;13.54;98.21;102467.03;4977269;28;20042;-65
2023/02/14 01:19:04;;;;;;;31.90;22.05;;;;;;;13.59;97.90;102466.97;4976830;28;20057;-66
2023/02/14 01:21:33;;;;;;;32.45;23.02;;;;;;;13.58;98.94;102465.31;4973066;28;20031;-66
2023/02/14 01:24:03;;;;;;;30.67;21.30;;;;;;;13.56;100.00;102462.06;4969086;28;20030;-66
2023/02/14 01:26:30;;;;;;;;;;;;;;;13.56;100.00;102451.06;4977177;28;20541;-66
2023/02/14 01:28:57;;;;;;;34.25;21.25;;;;;;;13.63;99.45;102447.97;4976752;28;19921;-65
2023/02/14 01:31:27;;;;;;;34.40;23.42;;;;;;;13.60;100.00;102447.47;4976492;28;20022;-65
2023/02/14 01:33:54;;;;;;;31.23;22.20;;;;;;;13.60;100.00;102452.97;4971630;28;20371;-65
2023/02/14 01:36:23;;;;;;;27.95;21.48;;;;;;;13.61;100.00;102448.28;4965722;28;20043;-66
2023/02/14 01:38:57;;;;;;;38.47;23.27;;;;;;;13.66;100.00;102450.13;4956500;28;20130;-66
2023/02/14 01:41:26;;;;;;;31.38;21.65;;;;;;;13.70;100.00;102446.53;4965550;28;20031;-74
2023/02/14 01:44:15;;;;;;;27.08;21.42;;;;;;;13.68;100.00;102443.25;4976463;28;20033;-78
2023/02/14 01:46:43;;;;;;;29.20;21.58;;;;;;;13.69;100.00;102446.81;4976531;28;20522;-77
2023/02/14 01:49:32;;;;;;;33.28;21.95;;;;;;;13.79;100.00;102439.25;4971566;28;20227;-77
2023/02/14 01:52:18;;;;;;;28.70;22.35;;;;;;;13.84;100.00;102432.91;4973057;28;20050;-77
2023/02/14 01:55:00;;;;;;;31.42;22.42;;;;;;;14.04;100.00;102429.88;4975631;28;20038;-65
2023/02/14 01:57:43;;;;;;;31.10;24.15;;;;;;;14.22;100.00;102417.28;4976206;28;20029;-66
2023/02/14 02:02:58;;;;;;;35.88;24.02;;;;;;;14.33;100.00;102418.75;4973350;28;20162;-75
2023/02/14 02:05:25;;;;;;;32.20;23.33;;;;;;;14.21;100.00;102423.03;4967938;28;20054;-77
2023/02/14 02:07:54;;;;;;;30.05;22.13;;;;;;;14.34;100.00;102417.63;4976259;28;20042;-72
2023/02/14 02:10:21;;;;;;;32.17;23.92;;;;;;;14.76;100.00;102423.34;4975121;28;20038;-65
2023/02/14 02:12:52;;;;;;;38.03;24.75;;;;;;;14.82;100.00;102413.91;4975758;28;20165;-66
2023/02/14 02:15:20;;;;;;;34.72;23.85;;;;;;;14.86;100.00;102414.91;4975942;28;20030;-65
2023/02/14 02:18:19;;;;;;;32.35;22.33;;;;;;;14.84;100.00;102415.22;4968041;28;20036;-66
2023/02/14 02:21:08;;;;;;;32.63;23.38;;;;;;;14.76;100.00;102418.66;4961341;28;20027;-65
2023/02/14 02:24:02;;;;;;;34.70;23.00;;;;;;;14.78;100.00;102410.91;4974977;28;20058;-65
2023/02/14 02:26:43;;;;;;;34.67;23.52;;;;;;;14.82;100.00;102411.97;4975642;28;20037;-65
2023/02/14 02:29:27;;;;;;;38.85;24.00;;;;;;;15.02;100.00;102408.03;4974496;28;20035;-66
2023/02/14 02:32:23;;;;;;;38.80;25.55;;;;;;;15.05;100.00;102401.13;4970755;28;20496;-66
2023/02/14 02:35:07;;;;;;;28.73;21.73;;;;;;;15.14;100.00;102396.53;4970102;28;20478;-66
2023/02/14 02:38:18;;;;;;;33.25;23.95;;;;;;;15.22;100.00;102393.91;4975758;28;20109;-65
2023/02/14 02:41:23;;;;;;;31.70;21.92;;;;;;;15.24;100.00;102394.41;4975319;28;20031;-65
2023/02/14 02:44:01;;;;;;;37.70;22.77;;;;;;;15.33;100.00;102399.19;4957922;28;20050;-67
2023/02/14 02:46:48;;;;;;;33.88;23.48;;;;;;;15.35;100.00;102396.97;4972543;28;20041;-65
2023/02/14 02:55:24;;;;;;;39.28;23.50;;;;;;;15.29;100.00;102379.72;4974771;28;20082;-65
2023/02/14 02:57:52;;;;;;;39.72;25.17;;;;;;;15.66;100.00;102380.69;4975171;28;20057;-66
2023/02/14 03:00:21;;;;;;;32.00;22.63;;;;;;;15.64;100.00;102377.38;4972586;28;20477;-66
2023/02/14 03:05:35;;;;;;;28.33;23.52;;;;;;;15.64;100.00;102394.78;4974315;28;20175;-66
2023/02/14 03:08:03;;;;;;;34.60;23.50;;;;;;;15.53;100.00;102376.75;4974527;28;20386;-69
2023/02/14 03:10:32;;;;;;;35.88;24.35;;;;;;;15.34;100.00;102385.16;4975068;28;20054;-74
2023/02/14 03:13:10;;;;;;;32.28;22.92;;;;;;;15.22;100.00;102379.31;4973318;28;20049;-66
2023/02/14 03:15:40;;;;;;;32.25;23.23;;;;;;;15.34;100.00;102385.16;4964205;28;20402;-66
2023/02/14 03:18:32;;;;;;;31.20;23.13;;;;;;;15.25;100.00;102381.44;4955537;28;20051;-66
2023/02/14 03:21:10;;;;;;;38.72;24.60;;;;;;;15.23;100.00;102372.69;4961608;28;20030;-71
2023/02/14 03:23:45;;;;;;;35.17;25.33;;;;;;;15.23;100.00;102384.50;4973703;28;20022;-65
2023/02/14 03:26:17;;;;;;;31.58;22.85;;;;;;;15.35;100.00;102370.25;4968655;28;20030;-66
2023/02/14 03:29:06;;;;;;;31.50;23.67;;;;;;;15.17;100.00;102373.88;4959977;28;20047;-66
2023/02/14 03:31:53;;;;;;;36.17;24.92;;;;;;;15.24;100.00;102357.78;4965683;28;20041;-66
2023/02/14 03:34:44;;;;;;;37.47;25.50;;;;;;;15.27;100.00;102351.69;4974520;28;20035;-66
2023/02/14 03:37:14;;;;;;;30.60;23.58;;;;;;;15.15;100.00;102348.59;4974681;28;20043;-65
2023/02/14 03:40:21;;;;;;;33.80;23.75;;;;;;;15.53;100.00;102344.53;4967837;28;20033;-65
2023/02/14 03:42:53;;;;;;;35.88;24.13;;;;;;;15.68;100.00;102348.09;4955109;28;20114;-66
2023/02/14 03:45:31;;;;;;;39.65;23.63;;;;;;;15.54;100.00;102337.06;4954843;28;20034;-66
2023/02/14 03:48:00;;;;;;;36.20;25.80;;;;;;;15.61;100.00;102318.22;4954982;28;20658;-73
2023/02/14 03:50:27;;;;;;;34.45;23.48;;;;;;;15.53;100.00;102330.75;4955816;28;20023;-66
2023/02/14 03:52:55;;;;;;;32.00;23.17;;;;;;;15.47;100.00;102337.47;4970784;28;20027;-66
2023/02/14 03:55:31;;;;;;;33.92;23.85;;;;;;;15.61;100.00;102348.53;4965520;28;20474;-65
2023/02/14 03:58:09;;;;;;;31.52;22.35;;;;;;;15.55;100.00;102347.78;4974066;28;20033;-65
2023/02/14 04:00:39;;;;;;;37.28;23.88;;;;;;;15.77;100.00;102335.22;4974163;28;20026;-71
2023/02/14 04:03:12;;;;;;;34.45;23.90;;;;;;;15.65;100.00;102334.97;4974195;28;20035;-68
2023/02/14 04:05:42;;;;;;;33.40;24.20;;;;;;;15.67;100.00;102332.69;4973367;28;20046;-66
2023/02/14 04:08:09;;;;;;;39.80;25.88;;;;;;;15.79;100.00;102332.97;4964417;28;20034;-73
2023/02/14 04:10:35;;;;;;;36.67;25.40;;;;;;;15.71;100.00;102323.50;4965878;28;20034;-66
2023/02/14 04:13:01;;;;;;;40.35;25.63;;;;;;;15.80;100.00;102329.13;4973621;28;20058;-65
2023/02/14 04:15:27;;;;;;;39.72;26.17;;;;;;;15.76;100.00;102331.66;4974185;28;20125;-66
2023/02/14 04:20:36;;;;;;;33.08;23.60;;;;;;;15.57;100.00;102319.09;4968263;28;20042;-65
2023/02/14 04:23:02;;;;;;;41.17;27.60;;;;;;;15.61;100.00;102314.63;4962555;28;20555;-68
2023/02/14 04:25:28;;;;;;;46.47;29.08;;;;;;;15.88;100.00;102308.28;4973716;28;20417;-66
2023/02/14 04:27:54;;;;;;;53.40;29.48;;;;;;;15.63;100.00;102310.44;4973663;28;20030;-71
2023/02/14 04:30:21;;;;;;;42.20;28.05;;;;;;;15.54;100.00;102306.75;4973959;28;20034;-66
2023/02/14 04:32:47;;;;;;;53.17;30.92;;;;;;;15.34;100.00;102299.75;4970749;28;20118;-68
2023/02/14 04:35:13;;;;;;;61.97;32.33;;;;;;;15.44;100.00;102293.22;4959963;28;20031;-66
2023/02/14 04:37:39;;;;;;;49.22;29.30;;;;;;;15.31;100.00;102292.09;4956923;28;20046;-65
2023/02/14 04:40:06;;;;;;;47.58;29.55;;;;;;;15.47;100.00;102284.31;4958356;29;20526;-67
2023/02/14 04:42:32;;;;;;;52.28;32.67;;;;;;;15.62;100.00;102281.25;4962157;28;20061;-68
2023/02/14 04:44:57;;;;;;;55.50;29.65;;;;;;;15.47;100.00;102281.56;4973670;28;20426;-67
2023/02/14 04:47:23;;;;;;;44.65;30.40;;;;;;;15.53;100.00;102286.66;4970503;28;20058;-66
2023/02/14 04:49:48;;;;;;;56.13;31.15;;;;;;;15.76;100.00;102272.97;4977493;28;20057;-66
2023/02/14 04:52:14;;;;;;;55.80;31.08;;;;;;;15.64;100.00;102284.56;4976862;28;20027;-67
2023/02/14 04:54:40;;;;;;;43.63;28.75;;;;;;;15.40;100.00;102282.00;4976781;28;20412;-67
2023/02/14 04:57:06;;;;;;;47.58;30.58;;;;;;;15.46;100.00;102285.44;4975757;28;20031;-66
2023/02/14 04:59:31;;;;;;;51.13;32.55;;;;;;;15.58;100.00;102284.94;4967765;28;20038;-67
2023/02/14 05:01:57;;;;;;;48.47;32.00;;;;;;;15.53;100.00;102289.41;4977520;28;20102;-66
2023/02/14 05:04:23;;;;;;;50.10;31.88;;;;;;;15.30;100.00;102273.94;4977038;28;20042;-65
2023/02/14 05:06:49;;;;;;;53.33;30.70;;;;;;;15.40;100.00;102268.22;4976947;28;20050;-65
2023/02/14 05:09:14;;;;;;;48.42;30.67;;;;;;;15.67;100.00;102275.66;4976577;28;20537;-73
2023/02/14 05:11:40;;;;;;;53.78;32.72;;;;;;;15.45;100.00;102281.06;4972671;28;20102;-67
2023/02/14 05:14:05;;;;;;;46.95;31.33;;;;;;;15.64;100.00;102278.19;4973240;28;20035;-65
2023/02/14 05:16:31;;;;;;;44.85;31.23;;;;;;;15.73;100.00;102279.94;4977007;28;20114;-66
2023/02/14 05:18:56;;;;;;;48.00;30.50;;;;;;;15.61;100.00;102270.53;4976980;28;20035;-65
2023/02/14 05:21:22;;;;;;;47.05;29.58;;;;;;;15.57;100.00;102269.50;4976994;28;20019;-68
2023/02/14 05:23:48;;;;;;;48.15;30.35;;;;;;;15.60;100.00;102274.41;4975835;28;20027;-66
2023/02/14 05:26:13;;;;;;;49.03;29.30;;;;;;;15.53;100.00;102278.41;4965972;28;20038;-66
2023/02/14 05:28:41;;;;;;;49.35;28.42;;;;;;;15.68;100.00;102273.72;4976777;28;20026;-65
2023/02/14 05:31:08;;;;;;;47.40;27.90;;;;;;;15.75;100.00;102269.41;4976689;28;20110;-66
2023/02/14 05:33:34;;;;;;;48.20;29.55;;;;;;;15.77;100.00;102263.56;4976757;28;20031;-66
2023/02/14 05:36:01;;;;;;;41.08;25.60;;;;;;;15.97;100.00;102267.81;4976672;28;20540;-66
2023/02/14 05:38:27;;;;;;;45.15;27.75;;;;;;;15.91;100.00;102266.28;4969313;28;20026;-66
2023/02/14 05:40:53;;;;;;;51.63;28.42;;;;;;;16.00;100.00;102265.22;4957309;28;20031;-66
2023/02/14 05:43:18;;;;;;;39.15;26.42;;;;;;;16.09;100.00;102268.84;4965901;28;20038;-66
2023/02/14 05:45:44;;;;;;;49.60;28.83;;;;;;;15.97;100.00;102263.09;4976405;28;20097;-66
2023/02/14 05:48:10;;;;;;;44.83;27.33;;;;;;;15.99;100.00;102257.25;4975862;28;20157;-68
2023/02/14 05:50:35;;;;;;;53.63;27.52;;;;;;;15.87;100.00;102265.25;4965353;28;20027;-67
2023/02/14 05:53:01;;;;;;;51.25;27.25;;;;;;;15.85;100.00;102268.34;4975792;28;20096;-66
2023/02/14 05:55:26;;;;;;;52.47;29.13;;;;;;;16.08;100.00;102253.44;4976557;28;20401;-66
2023/02/14 05:57:52;;;;;;;44.47;27.13;;;;;;;15.94;100.00;102254.63;4976512;28;20490;-66
2023/02/14 06:00:18;;;;;;;51.90;29.02;;;;;;;15.71;100.00;102267.56;4976517;28;20466;-72
2023/02/14 06:02:44;;;;;;;48.08;29.30;;;;;;;15.63;100.00;102254.53;4975944;28;20058;-66
2023/02/14 06:05:09;;;;;;;42.65;27.92;;;;;;;15.55;100.00;102254.09;4969001;28;20074;-65
2023/02/14 06:07:35;;;;;;;50.30;28.27;;;;;;;15.45;100.00;102243.31;4956015;28;20477;-66
2023/02/14 06:10:00;;;;;;;57.28;30.00;;;;;;;15.53;100.00;102230.75;4956720;28;20106;-66
2023/02/14 06:12:26;;;;;;;55.28;30.27;;;;;;;15.64;100.00;102240.47;4963123;28;20057;-68
2023/02/14 06:14:51;;;;;;;55.65;30.05;;;;;;;15.63;100.00;102240.75;4976231;28;20033;-66
2023/02/14 06:17:17;;;;;;;52.42;30.05;;;;;;;15.81;100.00;102245.31;4964576;28;20023;-77
2023/02/14 06:19:42;;;;;;;55.55;33.47;;;;;;;15.61;100.00;102242.97;4975228;28;20466;-66
2023/02/14 06:22:09;;;;;;;59.83;32.45;;;;;;;15.52;100.00;102243.72;4975046;28;20478;-66
2023/02/14 06:24:35;;;;;;;57.33;31.75;;;;;;;15.78;100.00;102246.72;4975611;28;20038;-65
2023/02/14 06:27:01;;;;;;;61.78;32.65;;;;;;;15.76;100.00;102248.97;4975637;28;20075;-66
2023/02/14 06:29:27;;;;;;;58.17;32.50;;;;;;;15.86;100.00;102249.84;4975657;28;20054;-66
2023/02/14 06:31:52;;;;;;;56.35;35.13;;;;;;;15.76;100.00;102248.16;4966200;28;20023;-66
2023/02/14 06:34:18;;;;;;;59.83;31.33;;;;;;;15.65;100.00;102247.59;4973662;28;20170;-65
2023/02/14 06:36:43;;;;;;;51.50;32.80;;;;;;;15.66;100.00;102245.66;4974805;28;20601;-67
2023/02/14 06:39:09;;;;;;;55.50;32.58;;;;;;;15.68;100.00;102241.44;4975529;28;20396;-66
2023/02/14 06:41:34;;;;;;;53.30;30.95;;;;;;;15.77;100.00;102239.56;4975308;28;20062;-67
2023/02/14 06:44:00;;;;;;;54.35;32.97;;;;;;;15.60;100.00;102250.44;4975236;28;20034;-65
2023/02/14 06:46:25;;;;;;;64.07;32.05;;;;;;;15.53;100.00;102250.84;4964157;28;20023;-65
2023/02/14 06:48:51;;;;;;;53.67;31.08;;;;;;;15.85;100.00;102251.81;4975330;28;20030;-66
2023/02/14 06:51:16;;;;;;;43.63;30.70;;;;;;;15.79;100.00;102264.06;4975229;28;20037;-66
2023/02/14 06:53:42;;;;;;;59.20;31.83;;;;;;;15.79;100.00;102251.13;4974164;28;20026;-66
2023/02/14 06:56:07;;;;;;;50.38;31.15;;;;;;;15.79;100.00;102253.03;4973822;28;20035;-69
2023/02/14 06:58:33;;;;;;;55.95;32.00;;;;;;;15.87;100.00;102255.09;4973409;28;20477;-66
2023/02/14 07:00:59;;;;;;;59.97;33.72;;;;;;;15.99;100.00;102260.03;4965031;28;20042;-65
2023/02/14 07:03:25;;;;;;;55.45;32.83;;;;;;;15.96;100.00;102257.91;4962327;28;20027;-67
2023/02/14 07:05:52;;;;;;;58.92;34.28;;;;;;;15.92;100.00;102263.22;4974895;28;20070;-65
2023/02/14 07:08:17;;;;;;;48.70;30.35;;;;;;;15.93;100.00;102270.34;4974269;28;20089;-71
2023/02/14 07:10:43;;;;;;;50.60;32.45;;;;;;;16.04;100.00;102274.50;4972659;28;20027;-71
2023/02/14 07:13:08;;;;;;;59.97;33.00;;;;;;;16.32;100.00;102269.69;4965825;28;20026;-66
2023/02/14 07:15:34;;;;;;;54.85;33.22;;;;;;;16.28;100.00;102270.63;4974767;28;20035;-66
2023/02/14 07:17:59;;;;;;;54.33;31.30;;;;;;;16.35;100.00;102265.47;4974726;28;20065;-66
2023/02/14 07:20:25;;;;;;;50.00;30.92;;;;;;;16.34;100.00;102269.38;4974734;28;20066;-65
2023/02/14 07:22:51;;;;;;;52.55;31.27;;;;;;;16.50;100.00;102259.56;4973721;28;20062;-66
2023/02/14 07:25:16;;;;;;;44.92;29.35;;;;;;;16.46;100.00;102255.78;4969664;28;20159;-77
2023/02/14 07:27:43;;;;;;;53.20;30.75;;;;;;;16.59;100.00;102251.31;4968404;28;20113;-67
2023/02/14 07:30:09;;;;;;;51.05;31.50;;;;;;;16.81;100.00;102258.75;4974826;28;20034;-65
2023/02/14 07:32:39;;;;;;;58.92;32.63;;;;;;;16.38;100.00;102259.31;4973240;28;20545;-66
2023/02/14 07:35:04;;;;;;;57.58;30.15;;;;;;;16.25;100.00;102254.72;4974210;28;20093;-66
2023/02/14 07:37:34;;;;;;;51.53;31.02;;;;;;;16.20;100.00;102268.63;4967760;28;20030;-65
2023/02/14 07:40:00;;;;;;;56.17;29.85;;;;;;;16.44;100.00;102282.88;4960120;28;20031;-67
2023/02/14 07:42:26;;;;;;;51.72;29.20;;;;;;;16.52;100.00;102276.59;4955955;28;20097;-67
2023/02/14 07:44:52;;;;;;;59.03;29.08;;;;;;;16.34;100.00;102274.88;4967924;28;20102;-68
2023/02/14 07:47:17;;;;;;;55.10;28.38;;;;;;;16.57;100.00;102270.97;4955110;28;20114;-78
2023/02/14 07:49:44;;;;;;;49.50;27.52;;;;;;;16.77;100.00;102271.56;4954841;28;20048;-66
2023/02/14 07:52:10;;;;;;;46.17;28.58;;;;;;;16.98;100.00;102272.63;4954493;28;20086;-66
2023/02/14 07:54:37;;;;;;;49.10;28.48;;;;;;;16.87;100.00;102271.28;4968978;28;20126;-66
2023/02/14 07:57:03;;;;;;;52.83;27.33;;;;;;;16.94;100.00;102270.84;4954824;28;20507;-65
2023/02/14 07:59:29;;;;;;;46.17;26.67;;;;;;;16.83;100.00;102275.81;4954755;28;20035;-67
2023/02/14 08:01:55;;;;;;;43.72;26.10;;;;;;;17.06;100.00;102282.06;4954768;28;20482;-65
2023/02/14 08:04:24;;;;;;;44.38;26.52;;;;;;;16.72;100.00;102272.53;4967369;28;20027;-65
2023/02/14 08:06:50;;;;;;;42.67;25.52;;;;;;;16.83;100.00;102281.31;4972938;28;20078;-67
2023/02/14 08:09:23;;;;;;;53.47;26.73;;;;;;;16.88;100.00;102292.25;4971113;28;20043;-66
2023/02/14 08:14:38;;;;;;;44.78;24.42;;;;;;;16.98;100.00;102285.63;4969376;28;20029;-77
2023/02/14 08:17:06;;;;;;;41.65;23.75;;;;;;;17.16;100.00;102282.63;4973915;28;20035;-66
2023/02/14 08:19:32;;;;;;;40.83;22.75;;;;;;;17.06;100.00;102288.41;4971931;28;20018;-65
2023/02/14 08:21:57;;;;;;;35.53;22.27;;;;;;;16.87;100.00;102293.38;4964085;28;20023;-71
2023/02/14 08:24:23;;;;;;;37.95;21.98;;;;;;;16.99;100.00;102295.53;4972961;28;20049;-66
2023/02/14 08:26:49;;;;;;;31.90;20.50;;;;;;;17.12;100.00;102292.66;4966023;28;20141;-72
2023/02/14 08:29:14;;;;;;;31.35;19.73;;;;;;;17.36;100.00;102295.00;4968797;28;21372;-78
2023/02/14 08:31:40;;;;;;;35.47;22.20;;;;;;;17.48;100.00;102291.63;4973697;28;20546;-77
2023/02/14 08:34:06;;;;;;;36.38;19.67;;;;;;;17.37;100.00;102291.09;4970128;28;20023;-68
2023/02/14 08:36:33;;;;;;;38.08;21.00;;;;;;;17.14;100.00;102290.38;4965760;28;20033;-66
2023/02/14 08:38:58;;;;;;;32.72;20.52;;;;;;;17.13;100.00;102279.66;4963328;28;20394;-71
2023/02/14 08:41:24;;;;;;;36.25;19.33;;;;;;;17.16;100.00;102279.03;4967887;28;20102;-70
2023/02/14 08:43:49;;;;;;;36.58;20.10;;;;;;;17.35;100.00;102267.69;4966432;28;20093;-75
2023/02/14 08:46:15;;;;;;;37.33;21.02;;;;;;;17.43;100.00;102253.09;4962772;28;20046;-65
2023/02/14 08:48:42;;;;;;;33.92;20.77;;;;;;;17.39;100.00;102261.22;4963335;28;20433;-65
2023/02/14 08:51:11;;;;;;;37.60;21.10;;;;;;;17.49;100.00;102262.84;4965888;28;20091;-65
2023/02/14 08:53:38;;;;;;;41.63;23.33;;;;;;;17.54;100.00;102262.69;4964200;28;20027;-66
2023/02/14 08:56:06;;;;;;;33.17;21.50;;;;;;;17.53;100.00;102268.53;4966636;28;20106;-66
2023/02/14 08:58:32;;;;;;;47.30;29.58;;;;;;;17.24;100.00;102264.44;4962890;28;20070;-76
2023/02/14 09:00:58;;;;;;;48.53;25.25;;;;;;;17.50;100.00;102258.94;4965147;28;20022;-66
2023/02/14 09:03:24;;;;;;;42.78;23.48;;;;;;;17.69;100.00;102258.66;4963374;28;20110;-68
2023/02/14 09:05:49;;;;;;;43.92;24.60;;;;;;;17.78;100.00;102255.91;4960658;28;20183;-65
2023/02/14 09:08:15;;;;;;;45.25;23.30;;;;;;;17.74;100.00;102269.56;4961797;28;20039;-66
2023/02/14 09:10:40;;;;;;;42.20;22.65;;;;;;;17.87;100.00;102271.34;4962904;28;20035;-67
2023/02/14 09:13:06;;;;;;;47.90;24.08;;;;;;;17.97;100.00;102262.72;4963491;28;20035;-65
2023/02/14 09:15:32;;;;;;;39.42;22.38;;;;;;;17.93;100.00;102264.53;4961853;28;20114;-66
2023/02/14 09:17:57;;;;;;;42.15;22.58;;;;;;;17.66;100.00;102260.09;4962181;28;20030;-65
2023/02/14 09:20:23;;;;;;;38.22;21.25;;;;;;;17.47;100.00;102259.59;4964171;28;20061;-71
2023/02/14 09:22:48;;;;;;;38.20;21.15;;;;;;;17.23;100.00;102270.25;4964263;28;20109;-75
2023/02/14 09:25:14;;;;;;;34.97;20.27;;;;;;;17.29;100.00;102264.25;4971189;28;20074;-65
2023/02/14 09:27:40;;;;;;;37.08;20.00;;;;;;;17.25;100.00;102265.25;4972830;28;20153;-75
2023/02/14 09:30:08;;;;;;;36.50;19.23;;;;;;;17.31;100.00;102259.25;4963043;28;20109;-69
2023/02/14 09:32:33;;;;;;;33.20;19.17;;;;;;;17.31;100.00;102269.50;4975982;28;20035;-76
2023/02/14 09:34:59;;;;;;;40.72;20.05;;;;;;;17.38;100.00;102261.50;4974512;28;20097;-75
2023/02/14 09:40:13;;;;;;;34.72;17.23;;;;;;;17.47;100.00;102248.56;4967580;28;20037;-65
2023/02/14 09:42:48;;;;;;;40.80;17.63;;;;;;;17.77;100.00;102254.28;4975739;28;20374;-71
2023/02/14 09:45:18;;;;;;;37.90;16.92;;;;;;;17.82;100.00;102259.63;4975843;28;20113;-64
2023/02/14 09:48:05;;;;;;;27.45;16.10;;;;;;;17.81;100.00;102263.56;4977388;28;20065;-74
2023/02/14 09:50:48;;;;;;;29.85;16.40;;;;;;;17.86;100.00;102263.41;4970990;28;20038;-69
2023/02/14 09:53:14;;;;;;;30.45;17.58;;;;;;;17.81;100.00;102247.78;4956225;28;20035;-76
2023/02/14 09:56:00;;;;;;;32.15;15.73;;;;;;;17.84;100.00;102266.50;4970319;28;20050;-77
2023/02/14 09:58:44;;;;;;;39.03;16.23;;;;;;;17.71;100.00;102254.44;4975165;28;20040;-70
2023/02/14 10:01:17;;;;;;;25.50;13.20;;;;;;;18.05;100.00;102258.31;4975821;28;20031;-70
2023/02/14 10:04:15;;;;;;;29.10;14.60;;;;;;;18.08;100.00;102260.44;4974141;28;20430;-70
2023/02/14 10:06:53;;;;;;;28.63;13.40;;;;;;;18.02;100.00;102254.28;4952969;28;20043;-75
2023/02/14 10:09:31;;;;;;;24.55;12.90;;;;;;;17.95;100.00;102258.66;4961598;28;20553;-67
2023/02/14 10:11:58;;;;;;;28.45;12.40;;;;;;;18.22;100.00;102260.28;4964190;28;20031;-72
2023/02/14 10:14:28;;;;;;;31.08;12.77;;;;;;;18.15;100.00;102268.25;4965052;28;20102;-66
2023/02/14 10:16:54;;;;;;;;;;;;;;;18.30;100.00;102263.03;4965981;28;20054;-75
2023/02/14 10:19:33;;;;;;;27.20;12.57;;;;;;;18.27;100.00;102257.31;4970807;28;19976;-69
2023/02/14 10:22:08;;;;;;;24.80;11.40;;;;;;;18.43;100.00;102263.94;4970370;28;20552;-65
2023/02/14 10:24:42;;;;;;;21.70;11.82;;;;;;;18.44;100.00;102254.53;4962845;28;20058;-68
2023/02/14 10:27:31;;;;;;;28.67;12.27;;;;;;;18.60;100.00;102254.81;4970390;28;20066;-78
2023/02/14 10:29:57;;;;;;;26.55;10.45;;;;;;;18.65;100.00;102251.84;4969763;28;20028;-76
2023/02/14 10:32:27;;;;;;;34.97;12.50;;;;;;;18.66;100.00;102242.41;4974291;28;20082;-66
2023/02/14 10:34:58;;;;;;;32.97;12.18;;;;;;;18.76;100.00;102244.03;4969386;28;20512;-70
2023/02/14 10:37:42;;;;;;;29.83;11.80;;;;;;;18.66;100.00;102250.72;4970706;28;20026;-79
2023/02/14 10:40:23;;;;;;;27.58;11.65;;;;;;;18.77;100.00;102251.19;4975270;28;20042;-79
2023/02/14 10:42:54;;;;;;;23.55;10.88;;;;;;;18.73;100.00;102244.69;4974538;28;20455;-65
2023/02/14 10:45:52;;;;;;;27.52;11.50;;;;;;;18.78;100.00;102248.09;4975420;28;20035;-80
2023/02/14 10:49:09;;;;;;;22.45;10.70;;;;;;;18.70;100.00;102248.94;4969256;28;20037;-80
2023/02/14 10:52:03;;;;;;;21.00;9.35;;;;;;;19.05;100.00;102240.47;4949048;28;20038;-65
2023/02/14 10:54:37;;;;;;;35.05;12.07;;;;;;;19.34;100.00;102262.59;4956281;28;20525;-71
2023/02/14 10:57:46;;;;;;;28.10;12.43;;;;;;;19.44;100.00;102252.28;4975588;28;20034;-76
2023/02/14 11:00:24;;;;;;;29.92;12.38;;;;;;;19.58;100.00;102262.00;4915363;29;20028;-66
2023/02/14 11:02:55;;;;;;;25.13;10.80;;;;;;;19.90;100.00;102254.06;4967721;28;20051;-66
2023/02/14 11:05:46;;;;;;;26.85;12.43;;;;;;;19.93;100.00;102250.59;4974121;28;20086;-74
2023/02/14 11:08:34;;;;;;;22.50;10.55;;;;;;;19.92;100.00;102249.00;4975069;28;20123;-66
2023/02/14 11:11:12;;;;;;;28.60;11.15;;;;;;;20.28;100.00;102253.88;4974969;28;20494;-67
2023/02/14 11:13:39;;;;;;;25.63;10.25;;;;;;;20.17;100.00;102247.91;4975278;28;20030;-79
2023/02/14 11:16:11;;;;;;;18.75;10.43;;;;;;;20.20;100.00;102244.47;4974861;28;20101;-79
2023/02/14 11:18:39;;;;;;;22.38;9.77;;;;;;;20.37;100.00;102237.94;4974847;28;20052;-73
2023/02/14 11:21:12;;;;;;;24.20;9.30;;;;;;;20.35;100.00;102240.25;4972586;28;20390;-82
2023/02/14 11:23:43;;;;;;;22.25;10.25;;;;;;;20.60;100.00;102235.56;4974698;28;20031;-75
2023/02/14 11:26:31;;;;;;;20.52;9.57;;;;;;;20.74;100.00;102236.03;4974425;28;20392;-75
2023/02/14 11:29:03;;;;;;;20.85;8.52;;;;;;;20.92;100.00;102239.41;4974665;28;20037;-66
2023/02/14 11:31:36;;;;;;;19.95;7.97;;;;;;;20.93;100.00;102240.22;4974874;28;20486;-66
2023/02/14 11:34:18;;;;;;;22.05;9.82;;;;;;;20.97;100.00;102247.50;4974817;28;20058;-66
2023/02/14 11:36:43;;;;;;;27.42;11.27;;;;;;;21.27;100.00;102247.25;4974052;28;20026;-67
2023/02/14 11:39:31;;;;;;;29.35;14.80;;;;;;;21.48;100.00;102234.06;4974530;28;20537;-72